PLVO2: Washita River nr Pauls Valley, OK

Data processed at Fri Jan 05 2018 23:47


All information presented herein is the property of the government of the United States of America and may be revised or deleted at any time without prior notice.
Dissemination of this information without the expressed written consent of the Public Affairs Office, Tulsa District U.S. Army Corps of Engineers is strictly prohibited.
These data are gathered electronically and, as presented, have not undergone any form of quality control. These data are not guaranteed to be valid or correct.
Go to home page.
Go to station list.

Upstream stations:

Downstream station:
Previous Day
Next Day
Current Day
    
SHEF ID:       PLVO2     Washita River near Pauls Valley
STATION TYPE:  

               PRECIP     STAGE  RIV-FLOW  BAT-LOAD
                   in        ft       cfs      volt
              Ccp-Rev   Ccp-Rev   Ccp-Rev   Ccp-Rev
(US/Central)
01/03 00:00      0.00      5.41       386     12.57
01/03 01:00      0.00      5.40       382     12.49
01/03 02:00      0.00      5.36       369     12.41
01/03 03:00      0.00      5.34       363     12.41
01/03 04:00      0.00      5.21       322     12.41
01/03 05:00      0.00      5.28       344     12.41
01/03 06:00      0.00      5.40       382     12.41
01/03 07:00      0.00      5.48       409     12.33
01/03 08:00      0.00      5.46       402     12.33
01/03 09:00      0.00      5.42       389     12.33
01/03 10:00      0.00      5.42       389     12.41
01/03 11:00      0.00      5.42       389     12.57
01/03 12:00      0.00      5.47       405     13.13
01/03 13:00      0.00      5.44       396     13.29
01/03 14:00      0.00      5.35       366     13.29
01/03 15:00      0.00      5.24       331     13.21
01/03 16:00      0.00      5.22       325     13.05
01/03 17:00      0.00      5.34       363     12.97
01/03 18:00      0.00      5.63       461     12.89
01/03 19:00      0.00      5.81       527     12.81
01/03 20:00      0.00      5.83       535     12.81
01/03 21:00      0.00      5.83       535     12.73
01/03 22:00      0.00      5.87       551     12.73
01/03 23:00      0.00      5.89       559     12.65